sensor_id;sensor_type;location;lat;lon;timestamp;pressure;altitude;pressure_sealevel;temperature;humidity
33414;BME280;60055;41.884;12.534;2023-04-05T00:00:51;100637.88;;;11.14;53.13
33414;BME280;60055;41.884;12.534;2023-04-05T00:03:18;100637.63;;;10.98;53.30
33414;BME280;60055;41.884;12.534;2023-04-05T00:05:47;100636.81;;;10.96;53.41
33414;BME280;60055;41.884;12.534;2023-04-05T00:08:14;100634.63;;;11.07;53.45
33414;BME280;60055;41.884;12.534;2023-04-05T00:10:51;100631.28;;;11.02;54.12
33414;BME280;60055;41.884;12.534;2023-04-05T00:13:21;100640.69;;;10.88;53.02
33414;BME280;60055;41.884;12.534;2023-04-05T00:15:48;100648.78;;;10.83;53.18
33414;BME280;60055;41.884;12.534;2023-04-05T00:18:14;100645.56;;;10.75;53.92
33414;BME280;60055;41.884;12.534;2023-04-05T00:20:51;100648.31;;;10.72;53.61
33414;BME280;60055;41.884;12.534;2023-04-05T00:23:18;100650.31;;;10.89;53.46
33414;BME280;60055;41.884;12.534;2023-04-05T00:25:49;100645.09;;;10.87;53.64
33414;BME280;60055;41.884;12.534;2023-04-05T00:28:15;100649.47;;;10.88;53.78
33414;BME280;60055;41.884;12.534;2023-04-05T00:30:42;100641.50;;;10.66;54.20
33414;BME280;60055;41.884;12.534;2023-04-05T00:33:11;100649.13;;;10.74;54.35
33414;BME280;60055;41.884;12.534;2023-04-05T00:35:36;100646.94;;;10.85;53.91
33414;BME280;60055;41.884;12.534;2023-04-05T00:38:01;100643.16;;;10.69;54.52
33414;BME280;60055;41.884;12.534;2023-04-05T00:40:26;100642.38;;;10.67;54.60
33414;BME280;60055;41.884;12.534;2023-04-05T00:42:52;100645.50;;;10.76;54.48
33414;BME280;60055;41.884;12.534;2023-04-05T00:45:17;100644.13;;;10.90;54.31
33414;BME280;60055;41.884;12.534;2023-04-05T00:47:43;100651.81;;;10.72;54.77
33414;BME280;60055;41.884;12.534;2023-04-05T00:50:13;100640.88;;;10.60;55.04
33414;BME280;60055;41.884;12.534;2023-04-05T00:52:40;100641.63;;;10.63;55.02
33414;BME280;60055;41.884;12.534;2023-04-05T00:55:06;100642.69;;;10.58;55.02
33414;BME280;60055;41.884;12.534;2023-04-05T00:57:34;100642.47;;;10.64;55.27
33414;BME280;60055;41.884;12.534;2023-04-05T01:00:00;100640.03;;;10.58;55.26
33414;BME280;60055;41.884;12.534;2023-04-05T01:02:33;100644.53;;;10.56;55.29
33414;BME280;60055;41.884;12.534;2023-04-05T01:05:08;100641.09;;;10.54;55.54
33414;BME280;60055;41.884;12.534;2023-04-05T01:07:42;100643.34;;;10.64;55.42
33414;BME280;60055;41.884;12.534;2023-04-05T01:10:13;100637.41;;;10.58;55.65
33414;BME280;60055;41.884;12.534;2023-04-05T01:12:43;100633.41;;;10.71;55.43
33414;BME280;60055;41.884;12.534;2023-04-05T01:15:10;100637.31;;;10.61;56.21
33414;BME280;60055;41.884;12.534;2023-04-05T01:17:37;100640.78;;;10.61;56.39
33414;BME280;60055;41.884;12.534;2023-04-05T01:20:08;100645.00;;;10.67;56.39
33414;BME280;60055;41.884;12.534;2023-04-05T01:30:54;100640.25;;;10.53;56.71
33414;BME280;60055;41.884;12.534;2023-04-05T01:36:25;100649.81;;;10.33;57.62
33414;BME280;60055;41.884;12.534;2023-04-05T01:38:53;100644.19;;;10.42;57.21
33414;BME280;60055;41.884;12.534;2023-04-05T01:41:20;100656.69;;;10.37;57.55
33414;BME280;60055;41.884;12.534;2023-04-05T01:43:46;100648.53;;;10.43;57.35
33414;BME280;60055;41.884;12.534;2023-04-05T01:46:11;100649.94;;;10.53;57.15
33414;BME280;60055;41.884;12.534;2023-04-05T01:48:37;100651.16;;;10.44;56.86
33414;BME280;60055;41.884;12.534;2023-04-05T01:51:02;100641.72;;;10.37;56.93
33414;BME280;60055;41.884;12.534;2023-04-05T01:53:28;100645.13;;;10.41;57.06
33414;BME280;60055;41.884;12.534;2023-04-05T01:55:53;100638.38;;;10.55;56.67
33414;BME280;60055;41.884;12.534;2023-04-05T01:58:18;100632.34;;;10.52;56.56
33414;BME280;60055;41.884;12.534;2023-04-05T02:00:44;100641.91;;;10.56;56.52
33414;BME280;60055;41.884;12.534;2023-04-05T02:03:09;100645.75;;;10.47;56.89
33414;BME280;60055;41.884;12.534;2023-04-05T02:05:35;100645.56;;;10.52;56.44
33414;BME280;60055;41.884;12.534;2023-04-05T02:08:00;100637.59;;;10.30;56.81
33414;BME280;60055;41.884;12.534;2023-04-05T02:10:25;100648.53;;;10.19;56.84
33414;BME280;60055;41.884;12.534;2023-04-05T02:12:51;100647.63;;;10.20;56.81
33414;BME280;60055;41.884;12.534;2023-04-05T02:15:16;100644.75;;;10.27;56.33
33414;BME280;60055;41.884;12.534;2023-04-05T02:17:43;100646.00;;;10.16;56.44
33414;BME280;60055;41.884;12.534;2023-04-05T02:20:12;100644.50;;;10.57;55.40
33414;BME280;60055;41.884;12.534;2023-04-05T02:22:39;100641.16;;;10.27;55.64
33414;BME280;60055;41.884;12.534;2023-04-05T02:25:06;100647.50;;;10.23;56.21
33414;BME280;60055;41.884;12.534;2023-04-05T02:27:35;100641.63;;;10.40;55.79
33414;BME280;60055;41.884;12.534;2023-04-05T02:30:00;100647.91;;;10.36;55.50
33414;BME280;60055;41.884;12.534;2023-04-05T02:32:27;100639.19;;;10.34;55.38
33414;BME280;60055;41.884;12.534;2023-04-05T02:34:53;100644.00;;;10.23;56.08
33414;BME280;60055;41.884;12.534;2023-04-05T02:37:19;100638.44;;;10.31;55.87
33414;BME280;60055;41.884;12.534;2023-04-05T02:39:46;100640.84;;;10.12;56.42
33414;BME280;60055;41.884;12.534;2023-04-05T02:42:12;100650.44;;;10.14;56.49
33414;BME280;60055;41.884;12.534;2023-04-05T02:44:39;100642.94;;;10.02;56.11
33414;BME280;60055;41.884;12.534;2023-04-05T02:47:04;100635.94;;;10.01;56.57
33414;BME280;60055;41.884;12.534;2023-04-05T02:49:29;100640.19;;;10.05;56.39
33414;BME280;60055;41.884;12.534;2023-04-05T02:51:55;100633.75;;;10.14;55.59
33414;BME280;60055;41.884;12.534;2023-04-05T02:54:20;100639.19;;;10.09;55.52
33414;BME280;60055;41.884;12.534;2023-04-05T02:56:46;100629.38;;;10.13;55.60
33414;BME280;60055;41.884;12.534;2023-04-05T02:59:14;100625.06;;;10.35;54.69
33414;BME280;60055;41.884;12.534;2023-04-05T03:01:39;100634.88;;;10.32;54.12
33414;BME280;60055;41.884;12.534;2023-04-05T03:04:08;100639.50;;;10.25;53.88
33414;BME280;60055;41.884;12.534;2023-04-05T03:06:36;100630.66;;;10.01;54.16
33414;BME280;60055;41.884;12.534;2023-04-05T03:09:02;100633.47;;;9.97;54.55
33414;BME280;60055;41.884;12.534;2023-04-05T03:11:30;100628.13;;;9.98;54.62
33414;BME280;60055;41.884;12.534;2023-04-05T03:13:56;100633.50;;;9.95;55.03
33414;BME280;60055;41.884;12.534;2023-04-05T03:16:21;100633.00;;;9.84;55.24
33414;BME280;60055;41.884;12.534;2023-04-05T03:18:48;100631.78;;;9.94;55.31
33414;BME280;60055;41.884;12.534;2023-04-05T03:21:13;100632.13;;;9.85;55.51
33414;BME280;60055;41.884;12.534;2023-04-05T03:23:45;100637.53;;;9.81;56.31
33414;BME280;60055;41.884;12.534;2023-04-05T03:26:12;100637.41;;;9.84;55.81
33414;BME280;60055;41.884;12.534;2023-04-05T03:28:39;100636.22;;;9.67;55.94
33414;BME280;60055;41.884;12.534;2023-04-05T03:31:10;100628.44;;;9.64;56.38
33414;BME280;60055;41.884;12.534;2023-04-05T03:33:36;100627.66;;;9.61;57.13
33414;BME280;60055;41.884;12.534;2023-04-05T03:36:03;100633.66;;;9.66;56.14
33414;BME280;60055;41.884;12.534;2023-04-05T03:38:29;100628.81;;;9.79;55.43
33414;BME280;60055;41.884;12.534;2023-04-05T03:40:56;100633.72;;;9.89;55.02
33414;BME280;60055;41.884;12.534;2023-04-05T03:43:22;100634.00;;;9.82;55.25
33414;BME280;60055;41.884;12.534;2023-04-05T03:45:47;100628.38;;;9.66;54.95
33414;BME280;60055;41.884;12.534;2023-04-05T03:48:13;100630.75;;;9.73;54.99
33414;BME280;60055;41.884;12.534;2023-04-05T03:50:38;100629.25;;;9.66;54.65
33414;BME280;60055;41.884;12.534;2023-04-05T03:53:03;100624.28;;;9.57;54.99
33414;BME280;60055;41.884;12.534;2023-04-05T03:55:30;100637.72;;;9.76;54.63
33414;BME280;60055;41.884;12.534;2023-04-05T03:57:55;100644.78;;;9.74;54.93
33414;BME280;60055;41.884;12.534;2023-04-05T04:00:21;100636.78;;;9.77;54.98
33414;BME280;60055;41.884;12.534;2023-04-05T04:02:48;100643.09;;;9.73;54.84
33414;BME280;60055;41.884;12.534;2023-04-05T04:05:15;100650.25;;;9.69;54.99
33414;BME280;60055;41.884;12.534;2023-04-05T04:07:43;100646.78;;;9.67;55.27
33414;BME280;60055;41.884;12.534;2023-04-05T04:10:11;100640.84;;;9.61;55.91
33414;BME280;60055;41.884;12.534;2023-04-05T04:12:37;100638.72;;;9.72;55.73
33414;BME280;60055;41.884;12.534;2023-04-05T04:15:04;100648.03;;;9.82;55.32
33414;BME280;60055;41.884;12.534;2023-04-05T04:17:34;100640.53;;;9.96;55.31
33414;BME280;60055;41.884;12.534;2023-04-05T04:19:59;100647.81;;;9.88;55.00
33414;BME280;60055;41.884;12.534;2023-04-05T04:22:26;100648.38;;;9.98;55.32
33414;BME280;60055;41.884;12.534;2023-04-05T04:25:00;100652.50;;;9.80;54.93
33414;BME280;60055;41.884;12.534;2023-04-05T04:27:29;100649.16;;;9.75;55.18
33414;BME280;60055;41.884;12.534;2023-04-05T04:29:55;100655.97;;;9.82;55.07
33414;BME280;60055;41.884;12.534;2023-04-05T04:32:27;100651.16;;;9.68;55.03
33414;BME280;60055;41.884;12.534;2023-04-05T04:35:14;100653.06;;;9.63;54.96
33414;BME280;60055;41.884;12.534;2023-04-05T04:38:02;100645.97;;;9.65;54.80
33414;BME280;60055;41.884;12.534;2023-04-05T04:40:36;100653.56;;;9.74;55.10
33414;BME280;60055;41.884;12.534;2023-04-05T04:43:05;100646.75;;;9.69;54.60
33414;BME280;60055;41.884;12.534;2023-04-05T04:45:34;100651.19;;;9.67;54.64
33414;BME280;60055;41.884;12.534;2023-04-05T04:48:03;100656.97;;;9.78;54.41
33414;BME280;60055;41.884;12.534;2023-04-05T04:50:32;100645.19;;;9.88;54.73
33414;BME280;60055;41.884;12.534;2023-04-05T04:52:58;100652.84;;;9.96;53.89
33414;BME280;60055;41.884;12.534;2023-04-05T04:55:24;100662.00;;;9.86;53.99
33414;BME280;60055;41.884;12.534;2023-04-05T04:57:51;100659.59;;;9.78;54.18
33414;BME280;60055;41.884;12.534;2023-04-05T05:00:19;100667.50;;;9.78;54.15
33414;BME280;60055;41.884;12.534;2023-04-05T05:02:45;100658.69;;;9.79;54.29
33414;BME280;60055;41.884;12.534;2023-04-05T05:05:12;100661.13;;;9.85;54.26
33414;BME280;60055;41.884;12.534;2023-04-05T05:07:39;100661.44;;;9.76;55.20
33414;BME280;60055;41.884;12.534;2023-04-05T05:10:07;100660.00;;;9.92;54.72
33414;BME280;60055;41.884;12.534;2023-04-05T05:12:33;100663.66;;;9.88;55.09
33414;BME280;60055;41.884;12.534;2023-04-05T05:14:58;100653.72;;;9.96;55.05
33414;BME280;60055;41.884;12.534;2023-04-05T05:17:25;100668.03;;;10.14;55.88
33414;BME280;60055;41.884;12.534;2023-04-05T05:19:50;100670.34;;;9.98;55.61
33414;BME280;60055;41.884;12.534;2023-04-05T05:22:17;100665.25;;;10.18;55.52
33414;BME280;60055;41.884;12.534;2023-04-05T05:24:45;100670.38;;;10.23;55.39
33414;BME280;60055;41.884;12.534;2023-04-05T05:27:12;100664.56;;;10.12;55.53
33414;BME280;60055;41.884;12.534;2023-04-05T05:29:37;100671.38;;;10.20;55.06
33414;BME280;60055;41.884;12.534;2023-04-05T05:32:03;100672.34;;;10.41;54.66
33414;BME280;60055;41.884;12.534;2023-04-05T05:34:28;100668.75;;;10.19;55.11
33414;BME280;60055;41.884;12.534;2023-04-05T05:36:54;100672.84;;;10.27;54.41
33414;BME280;60055;41.884;12.534;2023-04-05T05:39:19;100672.41;;;10.15;54.55
33414;BME280;60055;41.884;12.534;2023-04-05T05:41:46;100670.53;;;10.18;55.12
33414;BME280;60055;41.884;12.534;2023-04-05T05:44:11;100665.28;;;10.42;56.32
33414;BME280;60055;41.884;12.534;2023-04-05T05:46:38;100674.78;;;10.47;55.00
33414;BME280;60055;41.884;12.534;2023-04-05T05:49:04;100673.84;;;10.48;54.19
33414;BME280;60055;41.884;12.534;2023-04-05T05:51:29;100665.03;;;10.49;53.74
33414;BME280;60055;41.884;12.534;2023-04-05T05:53:56;100669.16;;;10.56;54.53
33414;BME280;60055;41.884;12.534;2023-04-05T05:56:22;100669.09;;;10.58;53.47
33414;BME280;60055;41.884;12.534;2023-04-05T05:58:47;100665.41;;;10.62;53.87
33414;BME280;60055;41.884;12.534;2023-04-05T06:01:15;100669.94;;;10.58;53.73
33414;BME280;60055;41.884;12.534;2023-04-05T06:03:40;100674.84;;;10.46;53.84
33414;BME280;60055;41.884;12.534;2023-04-05T06:06:06;100678.19;;;10.51;53.77
33414;BME280;60055;41.884;12.534;2023-04-05T06:08:36;100673.50;;;10.34;54.40
33414;BME280;60055;41.884;12.534;2023-04-05T06:11:02;100672.47;;;10.13;55.13
33414;BME280;60055;41.884;12.534;2023-04-05T06:13:27;100678.97;;;10.28;55.55
33414;BME280;60055;41.884;12.534;2023-04-05T06:15:53;100678.78;;;10.34;55.18
33414;BME280;60055;41.884;12.534;2023-04-05T06:18:18;100677.44;;;10.22;55.54
33414;BME280;60055;41.884;12.534;2023-04-05T06:20:48;100672.91;;;10.26;55.00
33414;BME280;60055;41.884;12.534;2023-04-05T06:23:13;100676.63;;;10.20;54.74
33414;BME280;60055;41.884;12.534;2023-04-05T06:25:39;100681.94;;;10.44;54.96
33414;BME280;60055;41.884;12.534;2023-04-05T06:28:05;100676.69;;;10.44;54.41
33414;BME280;60055;41.884;12.534;2023-04-05T06:30:32;100681.72;;;10.50;55.10
33414;BME280;60055;41.884;12.534;2023-04-05T06:32:58;100675.63;;;10.48;54.70
33414;BME280;60055;41.884;12.534;2023-04-05T06:35:24;100680.75;;;10.52;54.89
33414;BME280;60055;41.884;12.534;2023-04-05T06:37:50;100671.81;;;10.32;55.34
33414;BME280;60055;41.884;12.534;2023-04-05T06:40:16;100684.75;;;10.39;56.37
33414;BME280;60055;41.884;12.534;2023-04-05T06:42:42;100678.97;;;10.28;55.84
33414;BME280;60055;41.884;12.534;2023-04-05T06:45:10;100678.03;;;10.31;55.76
33414;BME280;60055;41.884;12.534;2023-04-05T06:47:38;100690.06;;;10.38;55.73
33414;BME280;60055;41.884;12.534;2023-04-05T06:50:05;100684.56;;;10.20;55.82
33414;BME280;60055;41.884;12.534;2023-04-05T06:52:32;100680.44;;;10.37;55.89
33414;BME280;60055;41.884;12.534;2023-04-05T06:54:57;100672.56;;;10.60;55.65
33414;BME280;60055;41.884;12.534;2023-04-05T06:57:22;100678.31;;;10.71;54.96
33414;BME280;60055;41.884;12.534;2023-04-05T06:59:48;100676.69;;;10.67;55.12
33414;BME280;60055;41.884;12.534;2023-04-05T07:02:15;100664.44;;;11.11;54.07
33414;BME280;60055;41.884;12.534;2023-04-05T07:04:41;100678.53;;;10.88;54.09
33414;BME280;60055;41.884;12.534;2023-04-05T07:07:06;100679.25;;;10.68;54.26
33414;BME280;60055;41.884;12.534;2023-04-05T07:09:31;100681.75;;;10.73;54.33
33414;BME280;60055;41.884;12.534;2023-04-05T07:11:58;100691.03;;;10.83;54.15
33414;BME280;60055;41.884;12.534;2023-04-05T07:14:24;100702.72;;;10.53;54.65
33414;BME280;60055;41.884;12.534;2023-04-05T07:16:50;100692.50;;;10.44;55.45
33414;BME280;60055;41.884;12.534;2023-04-05T07:19:18;100697.50;;;10.51;55.33
33414;BME280;60055;41.884;12.534;2023-04-05T07:21:44;100692.84;;;10.58;54.70
33414;BME280;60055;41.884;12.534;2023-04-05T07:24:09;100694.91;;;10.74;54.33
33414;BME280;60055;41.884;12.534;2023-04-05T07:26:35;100698.97;;;10.83;54.13
33414;BME280;60055;41.884;12.534;2023-04-05T07:29:02;100704.25;;;11.06;52.74
33414;BME280;60055;41.884;12.534;2023-04-05T07:31:28;100687.44;;;11.31;52.18
33414;BME280;60055;41.884;12.534;2023-04-05T07:33:54;100708.69;;;11.72;50.56
33414;BME280;60055;41.884;12.534;2023-04-05T07:36:20;100695.69;;;12.28;48.39
33414;BME280;60055;41.884;12.534;2023-04-05T07:38:48;100711.03;;;12.41;48.47
33414;BME280;60055;41.884;12.534;2023-04-05T07:41:13;100697.75;;;12.02;49.29
33414;BME280;60055;41.884;12.534;2023-04-05T07:43:40;100691.75;;;11.76;50.05
33414;BME280;60055;41.884;12.534;2023-04-05T07:46:06;100700.03;;;11.46;51.09
33414;BME280;60055;41.884;12.534;2023-04-05T07:48:32;100707.03;;;11.25;51.91
33414;BME280;60055;41.884;12.534;2023-04-05T07:51:08;100692.13;;;11.89;50.26
33414;BME280;60055;41.884;12.534;2023-04-05T07:53:35;100715.13;;;12.07;49.88
33414;BME280;60055;41.884;12.534;2023-04-05T07:56:08;100714.28;;;12.27;49.25
33414;BME280;60055;41.884;12.534;2023-04-05T07:58:34;100714.50;;;12.22;49.43
33414;BME280;60055;41.884;12.534;2023-04-05T08:01:02;100715.81;;;12.12;49.86
33414;BME280;60055;41.884;12.534;2023-04-05T08:03:28;100725.97;;;12.43;49.14
33414;BME280;60055;41.884;12.534;2023-04-05T08:05:56;100725.78;;;11.86;50.60
33414;BME280;60055;41.884;12.534;2023-04-05T08:08:24;100728.56;;;11.83;51.11
33414;BME280;60055;41.884;12.534;2023-04-05T08:10:49;100725.56;;;11.68;51.45
33414;BME280;60055;41.884;12.534;2023-04-05T08:13:17;100728.41;;;11.86;50.87
33414;BME280;60055;41.884;12.534;2023-04-05T08:15:43;100733.00;;;12.02;50.77
33414;BME280;60055;41.884;12.534;2023-04-05T08:18:08;100728.75;;;11.98;51.46
33414;BME280;60055;41.884;12.534;2023-04-05T08:20:33;100734.94;;;11.99;51.42
33414;BME280;60055;41.884;12.534;2023-04-05T08:23:04;100736.84;;;12.76;49.57
33414;BME280;60055;41.884;12.534;2023-04-05T08:25:29;100744.25;;;12.68;49.04
33414;BME280;60055;41.884;12.534;2023-04-05T08:27:55;100743.66;;;12.61;48.86
33414;BME280;60055;41.884;12.534;2023-04-05T08:30:20;100747.97;;;12.84;49.01
33414;BME280;60055;41.884;12.534;2023-04-05T08:32:48;100749.50;;;12.69;49.64
33414;BME280;60055;41.884;12.534;2023-04-05T08:35:14;100753.91;;;12.89;49.40
33414;BME280;60055;41.884;12.534;2023-04-05T08:37:39;100744.50;;;12.82;49.00
33414;BME280;60055;41.884;12.534;2023-04-05T08:40:05;100748.44;;;13.12;48.29
33414;BME280;60055;41.884;12.534;2023-04-05T08:42:41;100760.47;;;13.01;48.29
33414;BME280;60055;41.884;12.534;2023-04-05T08:45:09;100750.28;;;12.31;49.67
33414;BME280;60055;41.884;12.534;2023-04-05T08:47:36;100758.25;;;12.31;50.29
33414;BME280;60055;41.884;12.534;2023-04-05T08:50:03;100753.50;;;12.39;49.69
33414;BME280;60055;41.884;12.534;2023-04-05T08:52:30;100753.47;;;12.19;50.14
33414;BME280;60055;41.884;12.534;2023-04-05T08:54:56;100751.91;;;12.55;50.01
33414;BME280;60055;41.884;12.534;2023-04-05T08:57:26;100748.31;;;12.76;49.28
33414;BME280;60055;41.884;12.534;2023-04-05T08:59:54;100759.75;;;12.97;49.09
33414;BME280;60055;41.884;12.534;2023-04-05T09:02:22;100751.25;;;12.89;48.90
33414;BME280;60055;41.884;12.534;2023-04-05T09:04:49;100754.88;;;12.48;49.70
33414;BME280;60055;41.884;12.534;2023-04-05T09:07:15;100754.72;;;12.30;50.56
33414;BME280;60055;41.884;12.534;2023-04-05T09:09:51;100765.88;;;12.59;50.12
33414;BME280;60055;41.884;12.534;2023-04-05T09:12:19;100759.66;;;12.60;49.23
33414;BME280;60055;41.884;12.534;2023-04-05T09:14:45;100768.09;;;12.68;48.48
33414;BME280;60055;41.884;12.534;2023-04-05T09:17:15;100769.69;;;13.31;47.03
33414;BME280;60055;41.884;12.534;2023-04-05T09:19:41;100770.25;;;13.38;46.46
33414;BME280;60055;41.884;12.534;2023-04-05T09:22:08;100763.59;;;13.29;46.29
33414;BME280;60055;41.884;12.534;2023-04-05T09:24:35;100764.09;;;12.98;47.42
33414;BME280;60055;41.884;12.534;2023-04-05T09:27:17;100764.47;;;12.91;47.56
33414;BME280;60055;41.884;12.534;2023-04-05T09:29:44;100762.38;;;13.17;47.56
33414;BME280;60055;41.884;12.534;2023-04-05T09:32:11;100760.63;;;13.35;46.88
33414;BME280;60055;41.884;12.534;2023-04-05T09:34:37;100771.69;;;13.26;46.59
33414;BME280;60055;41.884;12.534;2023-04-05T09:39:41;100765.13;;;12.75;48.05
33414;BME280;60055;41.884;12.534;2023-04-05T09:42:14;100769.88;;;12.88;48.21
33414;BME280;60055;41.884;12.534;2023-04-05T09:44:59;100771.28;;;12.76;48.10
33414;BME280;60055;41.884;12.534;2023-04-05T09:47:30;100763.13;;;13.01;47.66
33414;BME280;60055;41.884;12.534;2023-04-05T09:49:57;100774.97;;;12.92;47.74
33414;BME280;60055;41.884;12.534;2023-04-05T09:52:28;100762.06;;;12.64;48.48
33414;BME280;60055;41.884;12.534;2023-04-05T09:54:58;100762.81;;;13.07;47.38
33414;BME280;60055;41.884;12.534;2023-04-05T09:57:25;100759.88;;;12.94;47.25
33414;BME280;60055;41.884;12.534;2023-04-05T09:59:51;100762.00;;;13.05;47.21
33414;BME280;60055;41.884;12.534;2023-04-05T10:02:17;100756.78;;;13.23;46.53
33414;BME280;60055;41.884;12.534;2023-04-05T10:04:46;100755.28;;;13.18;46.34
33414;BME280;60055;41.884;12.534;2023-04-05T10:07:15;100755.41;;;12.76;47.34
33414;BME280;60055;41.884;12.534;2023-04-05T10:09:42;100759.06;;;12.53;48.66
33414;BME280;60055;41.884;12.534;2023-04-05T10:12:09;100767.38;;;12.44;49.08
33414;BME280;60055;41.884;12.534;2023-04-05T10:14:35;100776.19;;;12.45;48.62
33414;BME280;60055;41.884;12.534;2023-04-05T10:17:11;100763.63;;;12.50;48.72
33414;BME280;60055;41.884;12.534;2023-04-05T10:19:50;100776.72;;;12.33;49.26
33414;BME280;60055;41.884;12.534;2023-04-05T10:22:30;100774.47;;;12.44;49.16
33414;BME280;60055;41.884;12.534;2023-04-05T10:25:04;100771.00;;;12.21;49.65
33414;BME280;60055;41.884;12.534;2023-04-05T10:27:35;100766.06;;;11.92;51.54
33414;BME280;60055;41.884;12.534;2023-04-05T10:30:06;100768.09;;;11.86;51.08
33414;BME280;60055;41.884;12.534;2023-04-05T10:32:55;100768.84;;;11.89;51.74
33414;BME280;60055;41.884;12.534;2023-04-05T10:38:21;100769.69;;;11.90;51.14
33414;BME280;60055;41.884;12.534;2023-04-05T10:40:48;100778.59;;;11.87;51.76
33414;BME280;60055;41.884;12.534;2023-04-05T10:43:22;100773.69;;;11.78;52.23
33414;BME280;60055;41.884;12.534;2023-04-05T10:45:52;100763.97;;;11.78;52.11
33414;BME280;60055;41.884;12.534;2023-04-05T10:51:23;100770.59;;;12.10;51.42
33414;BME280;60055;41.884;12.534;2023-04-05T10:53:51;100765.88;;;11.97;51.78
33414;BME280;60055;41.884;12.534;2023-04-05T10:56:17;100765.25;;;11.90;51.95
33414;BME280;60055;41.884;12.534;2023-04-05T10:58:47;100762.06;;;12.24;51.05
33414;BME280;60055;41.884;12.534;2023-04-05T11:01:19;100762.16;;;12.22;50.78
33414;BME280;60055;41.884;12.534;2023-04-05T11:03:49;100757.28;;;12.54;50.41
33414;BME280;60055;41.884;12.534;2023-04-05T11:06:31;100748.28;;;12.97;49.09
33414;BME280;60055;41.884;12.534;2023-04-05T11:09:15;100748.81;;;13.23;48.49
33414;BME280;60055;41.884;12.534;2023-04-05T11:11:45;100748.88;;;13.22;47.29
33414;BME280;60055;41.884;12.534;2023-04-05T11:14:22;100744.25;;;13.27;46.81
33414;BME280;60055;41.884;12.534;2023-04-05T11:16:53;100760.06;;;13.47;47.21
33414;BME280;60055;41.884;12.534;2023-04-05T11:22:10;100743.53;;;13.23;47.92
33414;BME280;60055;41.884;12.534;2023-04-05T11:24:50;100754.94;;;13.05;46.80
33414;BME280;60055;41.884;12.534;2023-04-05T11:27:25;100756.50;;;12.91;47.13
33414;BME280;60055;41.884;12.534;2023-04-05T11:29:57;100750.88;;;12.78;48.60
33414;BME280;60055;41.884;12.534;2023-04-05T11:32:23;100754.63;;;12.93;48.32
33414;BME280;60055;41.884;12.534;2023-04-05T11:34:59;100753.47;;;13.18;46.58
33414;BME280;60055;41.884;12.534;2023-04-05T11:40:37;100742.44;;;12.89;47.27
33414;BME280;60055;41.884;12.534;2023-04-05T11:43:26;100743.97;;;12.94;47.68
33414;BME280;60055;41.884;12.534;2023-04-05T11:45:54;100749.53;;;12.88;47.66
33414;BME280;60055;41.884;12.534;2023-04-05T11:48:22;100748.31;;;12.76;47.34
33414;BME280;60055;41.884;12.534;2023-04-05T11:50:49;100745.34;;;13.03;46.93
33414;BME280;60055;41.884;12.534;2023-04-05T11:53:18;100742.75;;;13.01;47.30
33414;BME280;60055;41.884;12.534;2023-04-05T11:55:46;100740.47;;;12.94;47.28
33414;BME280;60055;41.884;12.534;2023-04-05T11:58:22;100745.09;;;12.89;46.48
33414;BME280;60055;41.884;12.534;2023-04-05T12:00:59;100735.22;;;12.92;46.77
33414;BME280;60055;41.884;12.534;2023-04-05T12:03:27;100738.69;;;12.94;46.84
33414;BME280;60055;41.884;12.534;2023-04-05T12:05:57;100741.28;;;12.75;47.03
33414;BME280;60055;41.884;12.534;2023-04-05T12:08:37;100736.53;;;13.02;46.92
33414;BME280;60055;41.884;12.534;2023-04-05T12:11:06;100725.63;;;13.08;46.72
33414;BME280;60055;41.884;12.534;2023-04-05T12:13:32;100729.91;;;13.12;46.80
33414;BME280;60055;41.884;12.534;2023-04-05T12:16:00;100719.00;;;13.18;46.32
33414;BME280;60055;41.884;12.534;2023-04-05T12:18:26;100718.44;;;13.30;47.39
33414;BME280;60055;41.884;12.534;2023-04-05T12:20:53;100715.94;;;13.27;46.91
33414;BME280;60055;41.884;12.534;2023-04-05T12:23:23;100717.44;;;13.14;46.68
33414;BME280;60055;41.884;12.534;2023-04-05T12:25:52;100713.97;;;12.94;47.07
33414;BME280;60055;41.884;12.534;2023-04-05T12:28:19;100710.34;;;12.95;46.97
33414;BME280;60055;41.884;12.534;2023-04-05T12:30:48;100717.28;;;12.78;47.17
33414;BME280;60055;41.884;12.534;2023-04-05T12:33:14;100710.22;;;12.79;47.66
33414;BME280;60055;41.884;12.534;2023-04-05T12:35:40;100714.00;;;12.92;47.61
33414;BME280;60055;41.884;12.534;2023-04-05T12:38:12;100711.84;;;12.81;47.93
33414;BME280;60055;41.884;12.534;2023-04-05T12:40:42;100718.72;;;12.86;47.88
33414;BME280;60055;41.884;12.534;2023-04-05T12:43:09;100714.59;;;12.80;48.29
33414;BME280;60055;41.884;12.534;2023-04-05T12:45:36;100720.41;;;12.68;48.03
33414;BME280;60055;41.884;12.534;2023-04-05T12:48:09;100706.25;;;12.88;48.03
33414;BME280;60055;41.884;12.534;2023-04-05T12:50:41;100709.19;;;12.81;47.74
33414;BME280;60055;41.884;12.534;2023-04-05T12:53:16;100701.78;;;12.90;47.03
33414;BME280;60055;41.884;12.534;2023-04-05T12:55:50;100706.97;;;12.91;46.54
33414;BME280;60055;41.884;12.534;2023-04-05T12:58:31;100705.97;;;12.75;47.39
33414;BME280;60055;41.884;12.534;2023-04-05T13:00:57;100707.69;;;12.76;47.67
33414;BME280;60055;41.884;12.534;2023-04-05T13:03:25;100706.53;;;12.81;47.25
33414;BME280;60055;41.884;12.534;2023-04-05T13:05:54;100704.28;;;12.74;47.31
33414;BME280;60055;41.884;12.534;2023-04-05T13:08:24;100715.22;;;12.85;48.26
33414;BME280;60055;41.884;12.534;2023-04-05T13:10:52;100711.94;;;12.99;47.35
33414;BME280;60055;41.884;12.534;2023-04-05T13:13:18;100706.44;;;13.03;48.05